Armiesburg, Indiana
Current Conditions -  °F | °C
As of 12:55 PM on Tuesday 21 Oct 2014 (Local Time) from KPRG Reporting Station
Overcast Overcast  
Wind Chill: 56°   Ceiling: 4200
Heat Index: 56°   Visibility: 10mi
Dew Point: 43°   Wind: 3mph
Humidity: 62%   Direction: 360°N
Pressure: 30.14"   Gusts: NA
Location:  39.8207°N, 87.3335°W
Report Text: KPRG 211655Z AUTO 36003KT 10SM SCT030 BKN042 OVC047 13/06 A3014 RMK AO2 T01320060
Loading
Personal Weather Stations






























Interactive Weather Map
Tropical Storm Tracking
New forecast layout! Learn more

10-Day Weather Forecast

Advertisements
Track Severe Weather on mobile